createdAt,value
2023-04-15T00:00:48.230Z,2.53
2023-04-15T00:01:48.353Z,2.46
2023-04-15T00:02:48.462Z,2.43
2023-04-15T00:03:48.361Z,2.42
2023-04-15T00:04:48.595Z,2.36
2023-04-15T00:05:48.228Z,2.35
2023-04-15T00:06:48.174Z,2.36
2023-04-15T00:07:48.171Z,2.30
2023-04-15T00:08:48.155Z,2.28
2023-04-15T00:09:48.231Z,2.27
2023-04-15T00:10:48.138Z,2.27
2023-04-15T00:11:48.135Z,2.25
2023-04-15T00:12:48.137Z,2.25
2023-04-15T00:13:48.287Z,2.23
2023-04-15T00:14:48.093Z,2.23
2023-04-15T00:15:48.118Z,2.21
2023-04-15T00:16:48.113Z,2.21
2023-04-15T00:17:48.108Z,2.21
2023-04-15T00:18:48.870Z,2.18
2023-04-15T00:19:48.050Z,2.20
2023-04-15T00:20:48.029Z,2.20
2023-04-15T00:21:48.039Z,2.23
2023-04-15T00:22:48.017Z,2.28
2023-04-15T00:23:48.008Z,2.30
2023-04-15T00:24:47.993Z,2.34
2023-04-15T00:25:47.999Z,2.30
2023-04-15T00:26:47.971Z,2.34
2023-04-15T00:27:47.985Z,2.35
2023-04-15T00:28:47.958Z,2.36
2023-04-15T00:29:47.952Z,2.41
2023-04-15T00:30:47.974Z,2.41
2023-04-15T00:31:47.935Z,2.43
2023-04-15T00:32:47.975Z,2.49
2023-04-15T00:33:47.938Z,2.53
2023-04-15T00:34:47.915Z,2.54
2023-04-15T00:35:47.889Z,2.57
2023-04-15T00:36:47.870Z,2.60
2023-04-15T00:37:47.929Z,2.61
2023-04-15T00:38:47.860Z,2.66
2023-04-15T00:39:47.847Z,2.71
2023-04-15T00:40:47.827Z,2.72
2023-04-15T00:41:47.831Z,2.77
2023-04-15T00:42:47.819Z,2.79
2023-04-15T00:43:47.819Z,2.82
2023-04-15T00:44:47.800Z,2.87
2023-04-15T00:45:47.813Z,2.92
2023-04-15T00:46:47.773Z,3.00
2023-04-15T00:47:47.846Z,3.06
2023-04-15T00:48:47.759Z,3.15
2023-04-15T00:49:47.751Z,3.23
2023-04-15T00:50:47.727Z,3.28
2023-04-15T00:51:47.738Z,3.31
2023-04-15T00:52:47.710Z,3.33
2023-04-15T00:53:47.718Z,3.42
2023-04-15T00:54:47.690Z,3.48
2023-04-15T00:55:47.686Z,3.50
2023-04-15T00:56:47.665Z,3.52
2023-04-15T00:57:47.720Z,3.55
2023-04-15T00:58:47.640Z,3.57
2023-04-15T00:59:47.643Z,3.58
2023-04-15T01:00:47.619Z,3.58
2023-04-15T01:01:47.721Z,3.61
2023-04-15T01:02:47.750Z,3.61
2023-04-15T01:03:47.703Z,3.65
2023-04-15T01:04:47.587Z,3.65
2023-04-15T01:05:47.584Z,3.66
2023-04-15T01:06:47.566Z,3.75
2023-04-15T01:07:47.575Z,3.79
2023-04-15T01:08:47.540Z,3.80
2023-04-15T01:09:47.555Z,3.83
2023-04-15T01:10:47.511Z,3.84
2023-04-15T01:11:47.545Z,3.87
2023-04-15T01:12:47.505Z,3.86
2023-04-15T01:13:47.531Z,3.87
2023-04-15T01:14:47.485Z,3.86
2023-04-15T01:15:47.487Z,3.86
2023-04-15T01:16:47.454Z,3.86
2023-04-15T01:17:47.592Z,3.91
2023-04-15T01:18:47.526Z,3.91
2023-04-15T01:19:47.435Z,3.94
2023-04-15T01:20:47.416Z,3.94
2023-04-15T01:21:47.427Z,3.94
2023-04-15T01:22:47.396Z,3.98
2023-04-15T01:23:47.401Z,4.06
2023-04-15T01:24:47.379Z,4.06
2023-04-15T01:25:47.381Z,4.08
2023-04-15T01:26:47.354Z,4.09
2023-04-15T01:27:47.357Z,4.11
2023-04-15T01:28:47.342Z,4.15
2023-04-15T01:29:47.702Z,4.15
2023-04-15T01:30:47.306Z,4.18
2023-04-15T01:31:47.385Z,4.24
2023-04-15T01:32:47.302Z,4.26
2023-04-15T01:33:48.107Z,4.29
2023-04-15T01:34:47.268Z,4.30
2023-04-15T01:35:47.262Z,4.34
2023-04-15T01:36:47.257Z,4.34
2023-04-15T01:37:47.338Z,4.37
2023-04-15T01:38:47.224Z,4.37
2023-04-15T01:39:47.233Z,4.37
2023-04-15T01:40:47.212Z,4.37
2023-04-15T01:41:47.279Z,4.45
2023-04-15T01:42:47.188Z,4.48
2023-04-15T01:43:47.195Z,4.48
2023-04-15T01:44:47.185Z,4.51
2023-04-15T01:45:47.176Z,4.54
2023-04-15T01:46:47.157Z,4.52
2023-04-15T01:47:47.188Z,4.54
2023-04-15T01:48:47.122Z,4.55
2023-04-15T01:49:47.130Z,4.54
2023-04-15T01:50:47.102Z,4.58
2023-04-15T01:51:47.109Z,4.55
2023-04-15T01:52:47.077Z,4.55
2023-04-15T01:53:47.078Z,4.55
2023-04-15T01:54:47.059Z,4.60
2023-04-15T01:55:47.069Z,4.60
2023-04-15T01:56:47.041Z,4.62
2023-04-15T01:57:47.044Z,4.60
2023-04-15T01:58:47.017Z,4.62
2023-04-15T01:59:47.068Z,4.62
2023-04-15T02:00:47.040Z,4.62
2023-04-15T02:01:47.028Z,4.62
2023-04-15T02:02:47.069Z,4.60
2023-04-15T02:03:47.133Z,4.59
2023-04-15T02:04:46.960Z,4.58
2023-04-15T02:05:46.969Z,4.60
2023-04-15T02:06:46.943Z,4.60
2023-04-15T02:07:46.944Z,4.59
2023-04-15T02:08:46.908Z,4.63
2023-04-15T02:09:46.924Z,4.66
2023-04-15T02:10:46.904Z,4.66
2023-04-15T02:11:46.909Z,4.69
2023-04-15T02:12:47.068Z,4.72
2023-04-15T02:13:46.884Z,4.75
2023-04-15T02:14:46.852Z,4.77
2023-04-15T02:15:46.868Z,4.77
2023-04-15T02:16:46.857Z,4.80
2023-04-15T02:17:46.882Z,4.80
2023-04-15T02:18:46.829Z,4.84
2023-04-15T02:19:46.820Z,4.85
2023-04-15T02:20:46.801Z,4.86
2023-04-15T02:21:46.799Z,4.88
2023-04-15T02:22:46.777Z,4.86
2023-04-15T02:23:46.788Z,4.86
2023-04-15T02:24:46.765Z,4.88
2023-04-15T02:25:53.372Z,4.92
2023-04-15T02:26:47.763Z,4.94
2023-04-15T02:27:46.747Z,4.99
2023-04-15T02:28:46.723Z,5.00
2023-04-15T02:29:46.716Z,5.03
2023-04-15T02:30:46.772Z,5.04
2023-04-15T02:31:46.755Z,5.04
2023-04-15T02:32:46.700Z,5.02
2023-04-15T02:33:46.705Z,5.00
2023-04-15T02:34:47.456Z,5.03
2023-04-15T02:35:46.644Z,5.09
2023-04-15T02:36:46.643Z,5.07
2023-04-15T02:37:46.622Z,5.09
2023-04-15T02:38:46.634Z,5.07
2023-04-15T02:39:46.679Z,5.07
2023-04-15T02:40:46.621Z,5.06
2023-04-15T02:41:46.596Z,5.07
2023-04-15T02:42:46.619Z,5.07
2023-04-15T02:43:46.589Z,5.06
2023-04-15T02:44:46.569Z,5.06
2023-04-15T02:45:46.662Z,5.04
2023-04-15T02:46:46.553Z,5.03
2023-04-15T02:47:46.553Z,5.03
2023-04-15T02:48:46.552Z,5.04
2023-04-15T02:49:46.508Z,5.02
2023-04-15T02:50:46.518Z,5.04
2023-04-15T02:51:46.481Z,5.07
2023-04-15T02:52:46.500Z,5.07
2023-04-15T02:53:46.463Z,5.09
2023-04-15T02:54:46.457Z,5.09
2023-04-15T02:55:46.466Z,5.07
2023-04-15T02:56:46.433Z,5.09
2023-04-15T02:57:46.422Z,5.09
2023-04-15T02:58:46.432Z,5.09
2023-04-15T02:59:46.617Z,5.09
2023-04-15T03:00:46.394Z,5.09
2023-04-15T03:01:46.496Z,5.10
2023-04-15T03:02:46.489Z,5.13
2023-04-15T03:03:46.477Z,5.17
2023-04-15T03:04:46.376Z,5.17
2023-04-15T03:05:46.358Z,5.17
2023-04-15T03:06:46.343Z,5.15
2023-04-15T03:07:46.306Z,5.12
2023-04-15T03:08:46.319Z,5.12
2023-04-15T03:09:46.292Z,5.12
2023-04-15T03:10:46.297Z,5.12
2023-04-15T03:11:46.277Z,5.20
2023-04-15T03:12:46.271Z,5.21
2023-04-15T03:13:46.250Z,5.22
2023-04-15T03:14:46.255Z,5.22
2023-04-15T03:15:46.290Z,5.21
2023-04-15T03:16:46.232Z,5.20
2023-04-15T03:17:46.255Z,5.21
2023-04-15T03:18:46.214Z,5.21
2023-04-15T03:19:46.201Z,5.21
2023-04-15T03:20:46.206Z,5.24
2023-04-15T03:21:46.165Z,5.20
2023-04-15T03:22:46.173Z,5.20
2023-04-15T03:23:46.159Z,5.18
2023-04-15T03:24:46.142Z,5.18
2023-04-15T03:25:46.126Z,5.18
2023-04-15T03:26:46.144Z,5.15
2023-04-15T03:27:46.104Z,5.18
2023-04-15T03:28:46.118Z,5.20
2023-04-15T03:29:46.104Z,5.18
2023-04-15T03:30:46.086Z,5.18
2023-04-15T03:31:46.069Z,5.15
2023-04-15T03:32:46.091Z,5.18
2023-04-15T03:33:46.045Z,5.20
2023-04-15T03:34:46.055Z,5.22
2023-04-15T03:35:46.022Z,5.25
2023-04-15T03:36:46.041Z,5.25
2023-04-15T03:37:46.002Z,5.24
2023-04-15T03:38:46.016Z,5.25
2023-04-15T03:39:45.996Z,5.24
2023-04-15T03:40:45.977Z,5.24
2023-04-15T03:41:45.962Z,5.25
2023-04-15T03:42:46.779Z,5.22
2023-04-15T03:43:45.974Z,5.21
2023-04-15T03:44:45.955Z,5.21
2023-04-15T03:45:45.927Z,5.20
2023-04-15T03:46:46.019Z,5.21
2023-04-15T03:47:45.934Z,5.20
2023-04-15T03:48:45.909Z,5.20
2023-04-15T03:49:45.882Z,5.17
2023-04-15T03:50:45.890Z,5.17
2023-04-15T03:51:45.870Z,5.18
2023-04-15T03:52:45.870Z,5.20
2023-04-15T03:53:45.845Z,5.22
2023-04-15T03:54:45.852Z,5.25
2023-04-15T03:55:45.826Z,5.24
2023-04-15T03:56:46.637Z,5.24
2023-04-15T03:57:45.810Z,5.22
2023-04-15T03:58:45.803Z,5.25
2023-04-15T03:59:45.790Z,5.25
2023-04-15T04:00:45.987Z,5.24
2023-04-15T04:01:45.825Z,5.25
2023-04-15T04:02:45.927Z,5.27
2023-04-15T04:03:45.896Z,5.27
2023-04-15T04:04:45.788Z,5.30
2023-04-15T04:05:45.746Z,5.36
2023-04-15T04:06:45.726Z,5.39
2023-04-15T04:07:45.711Z,5.39
2023-04-15T04:08:45.705Z,5.42
2023-04-15T04:09:47.173Z,5.39
2023-04-15T04:10:45.677Z,5.40
2023-04-15T04:11:45.767Z,5.40
2023-04-15T04:12:45.665Z,5.40
2023-04-15T04:13:45.651Z,5.42
2023-04-15T04:14:45.668Z,5.42
2023-04-15T04:15:45.677Z,5.42
2023-04-15T04:16:45.631Z,5.42
2023-04-15T04:17:45.650Z,5.43
2023-04-15T04:18:45.596Z,5.40
2023-04-15T04:19:46.417Z,5.42
2023-04-15T04:20:45.572Z,5.43
2023-04-15T04:21:45.565Z,5.42
2023-04-15T04:22:45.563Z,5.45
2023-04-15T04:23:45.555Z,5.46
2023-04-15T04:24:45.548Z,5.43
2023-04-15T04:25:45.519Z,5.43
2023-04-15T04:26:45.516Z,5.42
2023-04-15T04:27:45.497Z,5.38
2023-04-15T04:28:45.497Z,5.36
2023-04-15T04:29:45.478Z,5.33
2023-04-15T04:30:45.479Z,5.35
2023-04-15T04:31:45.496Z,5.36
2023-04-15T04:32:45.549Z,5.38
2023-04-15T04:33:45.434Z,5.38
2023-04-15T04:34:45.434Z,5.39
2023-04-15T04:35:45.418Z,5.36
2023-04-15T04:36:45.420Z,5.36
2023-04-15T04:37:45.388Z,5.38
2023-04-15T04:38:45.408Z,5.38
2023-04-15T04:39:45.378Z,5.38
2023-04-15T04:40:45.371Z,5.38
2023-04-15T04:41:45.368Z,5.39
2023-04-15T04:42:45.354Z,5.40
2023-04-15T04:43:45.348Z,5.45
2023-04-15T04:44:45.324Z,5.43
2023-04-15T04:45:45.364Z,5.45
2023-04-15T04:46:45.387Z,5.42
2023-04-15T04:47:45.344Z,5.39
2023-04-15T04:48:47.077Z,5.36
2023-04-15T04:49:45.275Z,5.38
2023-04-15T04:50:45.265Z,5.38
2023-04-15T04:51:45.374Z,5.35
2023-04-15T04:52:45.259Z,5.36
2023-04-15T04:53:45.239Z,5.36
2023-04-15T04:54:45.239Z,5.33
2023-04-15T04:55:46.023Z,5.33
2023-04-15T04:56:45.227Z,5.33
2023-04-15T04:57:45.183Z,5.31
2023-04-15T04:58:45.190Z,5.30
2023-04-15T04:59:45.357Z,5.30
2023-04-15T05:00:45.166Z,5.31
2023-04-15T05:01:45.166Z,5.35
2023-04-15T05:02:45.231Z,5.36
2023-04-15T05:03:45.363Z,5.36
2023-04-15T05:04:45.136Z,5.38
2023-04-15T05:05:45.120Z,5.39
2023-04-15T05:06:45.105Z,5.40
2023-04-15T05:07:45.089Z,5.42
2023-04-15T05:08:45.082Z,5.45
2023-04-15T05:09:45.077Z,5.45
2023-04-15T05:10:45.064Z,5.48
2023-04-15T05:11:45.091Z,5.49
2023-04-15T05:12:45.059Z,5.46
2023-04-15T05:13:45.057Z,5.49
2023-04-15T05:14:45.042Z,5.48
2023-04-15T05:15:45.079Z,5.49
2023-04-15T05:16:45.057Z,5.54
2023-04-15T05:17:45.049Z,5.53
2023-04-15T05:18:44.992Z,5.54
2023-04-15T05:19:44.967Z,5.57
2023-04-15T05:20:45.675Z,5.60
2023-04-15T05:21:44.967Z,5.60
2023-04-15T05:22:45.757Z,5.60
2023-04-15T05:23:44.950Z,5.63
2023-04-15T05:24:44.922Z,5.64
2023-04-15T05:25:44.971Z,5.71
2023-04-15T05:26:44.968Z,5.71
2023-04-15T05:27:44.913Z,5.75
2023-04-15T05:28:44.884Z,5.78
2023-04-15T05:29:44.881Z,5.78
2023-04-15T05:30:44.863Z,5.81
2023-04-15T05:31:44.894Z,5.85
2023-04-15T05:32:44.894Z,5.85
2023-04-15T05:33:44.823Z,5.90
2023-04-15T05:34:44.831Z,5.91
2023-04-15T05:35:44.799Z,5.93
2023-04-15T05:36:45.378Z,5.96
2023-04-15T05:37:44.787Z,5.99
2023-04-15T05:38:44.782Z,6.01
2023-04-15T05:39:44.764Z,6.04
2023-04-15T05:40:44.777Z,6.11
2023-04-15T05:41:44.752Z,6.11
2023-04-15T05:42:44.754Z,6.17
2023-04-15T05:43:44.746Z,6.17
2023-04-15T05:44:44.718Z,6.21
2023-04-15T05:45:44.700Z,6.22
2023-04-15T05:46:44.702Z,6.25
2023-04-15T05:47:45.580Z,6.30
2023-04-15T05:48:44.683Z,6.37
2023-04-15T05:49:44.654Z,6.38
2023-04-15T05:50:44.652Z,6.41
2023-04-15T05:51:44.638Z,6.44
2023-04-15T05:52:44.640Z,6.49
2023-04-15T05:53:44.615Z,6.51
2023-04-15T05:54:44.616Z,6.54
2023-04-15T05:55:44.594Z,6.56
2023-04-15T05:56:44.604Z,6.67
2023-04-15T05:57:44.584Z,6.70
2023-04-15T05:58:44.848Z,6.71
2023-04-15T05:59:44.556Z,6.79
2023-04-15T06:00:44.553Z,6.85
2023-04-15T06:01:44.535Z,6.88
2023-04-15T06:02:44.680Z,6.95
2023-04-15T06:03:44.614Z,6.88
2023-04-15T06:04:44.542Z,6.97
2023-04-15T06:05:44.488Z,6.97
2023-04-15T06:06:44.488Z,7.02
2023-04-15T06:07:46.677Z,7.07
2023-04-15T06:08:44.460Z,7.03
2023-04-15T06:09:44.451Z,7.06
2023-04-15T06:10:44.451Z,7.09
2023-04-15T06:11:44.425Z,7.07
2023-04-15T06:12:44.427Z,7.12
2023-04-15T06:13:44.406Z,7.16
2023-04-15T06:14:44.406Z,7.21
2023-04-15T06:15:44.422Z,7.25
2023-04-15T06:16:44.428Z,7.31
2023-04-15T06:17:44.418Z,7.37
2023-04-15T06:18:44.379Z,7.45
2023-04-15T06:19:44.341Z,7.52
2023-04-15T06:20:44.337Z,7.49
2023-04-15T06:21:44.361Z,7.52
2023-04-15T06:22:44.320Z,7.57
2023-04-15T06:23:44.295Z,7.50
2023-04-15T06:24:44.319Z,7.50
2023-04-15T06:25:44.289Z,7.57
2023-04-15T06:26:44.290Z,7.60
2023-04-15T06:27:44.257Z,7.64
2023-04-15T06:28:44.262Z,7.67
2023-04-15T06:29:44.233Z,7.67
2023-04-15T06:30:44.251Z,7.69
2023-04-15T06:31:44.253Z,7.79
2023-04-15T06:32:44.266Z,7.82
2023-04-15T06:33:44.211Z,7.83
2023-04-15T06:34:44.202Z,7.75
2023-04-15T06:35:44.175Z,7.83
2023-04-15T06:36:44.191Z,7.87
2023-04-15T06:37:44.148Z,7.87
2023-04-15T06:38:44.179Z,7.87
2023-04-15T06:39:44.134Z,7.95
2023-04-15T06:40:44.146Z,8.02
2023-04-15T06:41:44.109Z,8.08
2023-04-15T06:42:44.116Z,8.15
2023-04-15T06:43:44.089Z,8.29
2023-04-15T06:44:44.304Z,8.30
2023-04-15T06:45:44.248Z,8.44
2023-04-15T06:46:44.082Z,8.50
2023-04-15T06:47:44.071Z,8.65
2023-04-15T06:48:44.044Z,8.84
2023-04-15T06:49:44.551Z,9.14
2023-04-15T06:50:44.046Z,9.20
2023-04-15T06:51:44.010Z,9.42
2023-04-15T06:52:44.014Z,9.35
2023-04-15T06:53:44.000Z,9.39
2023-04-15T06:54:43.988Z,9.53
2023-04-15T06:55:43.971Z,9.66
2023-04-15T06:56:43.955Z,9.79
2023-04-15T06:57:43.956Z,9.90
2023-04-15T06:58:43.931Z,9.86
2023-04-15T06:59:43.942Z,9.74
2023-04-15T07:00:43.938Z,9.60
2023-04-15T07:01:43.915Z,9.61
2023-04-15T07:02:44.025Z,9.68
2023-04-15T07:03:43.888Z,9.60
2023-04-15T07:04:43.895Z,9.58
2023-04-15T07:05:43.863Z,9.57
2023-04-15T07:06:43.855Z,9.54
2023-04-15T07:07:44.664Z,9.58
2023-04-15T07:08:43.839Z,9.50
2023-04-15T07:09:43.833Z,9.35
2023-04-15T07:10:43.822Z,9.35
2023-04-15T07:11:44.618Z,9.17
2023-04-15T07:12:43.796Z,9.23
2023-04-15T07:13:43.792Z,9.21
2023-04-15T07:14:43.776Z,9.20
2023-04-15T07:15:43.762Z,9.18
2023-04-15T07:16:43.947Z,9.23
2023-04-15T07:17:43.831Z,9.18
2023-04-15T07:18:43.721Z,9.23
2023-04-15T07:19:43.736Z,9.21
2023-04-15T07:20:44.522Z,9.15
2023-04-15T07:21:43.716Z,9.26
2023-04-15T07:22:44.488Z,9.39
2023-04-15T07:23:43.682Z,9.50
2023-04-15T07:24:43.662Z,9.54
2023-04-15T07:25:43.661Z,9.58
2023-04-15T07:26:43.670Z,9.66
2023-04-15T07:27:43.637Z,9.69
2023-04-15T07:28:43.614Z,9.68
2023-04-15T07:29:43.619Z,9.65
2023-04-15T07:30:43.660Z,9.54
2023-04-15T07:31:43.592Z,9.66
2023-04-15T07:32:43.615Z,9.84
2023-04-15T07:33:43.578Z,9.94
2023-04-15T07:34:43.556Z,10.07
2023-04-15T07:35:43.554Z,10.01
2023-04-15T07:36:43.546Z,9.89
2023-04-15T07:37:43.548Z,9.96
2023-04-15T07:38:43.525Z,10.14
2023-04-15T07:39:43.517Z,10.30
2023-04-15T07:40:43.491Z,10.23
2023-04-15T07:41:43.509Z,10.25
2023-04-15T07:42:43.485Z,10.08
2023-04-15T07:43:43.470Z,9.86
2023-04-15T07:44:43.454Z,9.93
2023-04-15T07:45:43.644Z,9.93
2023-04-15T07:46:43.513Z,9.96
2023-04-15T07:47:43.475Z,9.94
2023-04-15T07:48:43.431Z,9.97
2023-04-15T07:49:43.445Z,9.96
2023-04-15T07:50:43.407Z,10.01
2023-04-15T07:51:43.387Z,10.12
2023-04-15T07:52:43.372Z,10.32
2023-04-15T07:53:43.368Z,10.53
2023-04-15T07:54:43.350Z,10.71
2023-04-15T07:55:43.400Z,10.84
2023-04-15T07:56:43.342Z,10.52
2023-04-15T07:57:43.324Z,10.34
2023-04-15T07:58:43.304Z,10.41
2023-04-15T07:59:43.316Z,10.51
2023-04-15T08:00:43.285Z,10.64
2023-04-15T08:01:43.533Z,10.64
2023-04-15T08:02:43.468Z,10.76
2023-04-15T08:03:43.512Z,10.67
2023-04-15T08:04:43.468Z,10.64
2023-04-15T08:05:43.238Z,10.48
2023-04-15T08:06:43.217Z,10.32
2023-04-15T08:07:43.226Z,10.29
2023-04-15T08:08:43.228Z,10.18
2023-04-15T08:09:43.283Z,10.02
2023-04-15T08:10:43.175Z,10.08
2023-04-15T08:11:43.172Z,10.11
2023-04-15T08:12:43.156Z,10.25
2023-04-15T08:13:43.156Z,10.38
2023-04-15T08:14:43.136Z,10.56
2023-04-15T08:15:43.197Z,10.59
2023-04-15T08:16:43.110Z,10.30
2023-04-15T08:17:43.113Z,10.26
2023-04-15T08:18:43.096Z,10.14
2023-04-15T08:19:43.094Z,9.97
2023-04-15T08:20:43.067Z,9.86
2023-04-15T08:21:43.068Z,9.97
2023-04-15T08:22:43.045Z,10.02
2023-04-15T08:23:43.047Z,10.14
2023-04-15T08:24:43.016Z,10.20
2023-04-15T08:25:43.023Z,10.29
2023-04-15T08:26:42.999Z,10.41
2023-04-15T08:27:43.002Z,10.56
2023-04-15T08:28:43.800Z,10.47
2023-04-15T08:29:42.985Z,10.41
2023-04-15T08:30:42.970Z,10.34
2023-04-15T08:31:42.972Z,10.20
2023-04-15T08:32:42.979Z,10.12
2023-04-15T08:33:43.761Z,10.20
2023-04-15T08:34:42.914Z,10.34
2023-04-15T08:35:42.906Z,10.52
2023-04-15T08:36:42.900Z,10.56
2023-04-15T08:37:43.043Z,10.68
2023-04-15T08:38:42.878Z,10.71
2023-04-15T08:39:42.866Z,10.68
2023-04-15T08:40:42.853Z,10.71
2023-04-15T08:41:42.857Z,10.89
2023-04-15T08:42:43.686Z,10.89
2023-04-15T08:43:42.828Z,10.85
2023-04-15T08:44:42.805Z,10.97
2023-04-15T08:45:42.807Z,11.00
2023-04-15T08:46:42.812Z,11.10
2023-04-15T08:47:42.817Z,10.85
2023-04-15T08:48:42.766Z,11.03
2023-04-15T08:49:42.761Z,11.22
2023-04-15T08:50:42.752Z,11.27
2023-04-15T08:51:42.744Z,11.29
2023-04-15T08:52:42.714Z,11.29
2023-04-15T08:53:42.719Z,11.44
2023-04-15T08:54:42.699Z,11.51
2023-04-15T08:55:42.704Z,11.43
2023-04-15T08:56:42.778Z,11.42
2023-04-15T08:57:42.686Z,11.47
2023-04-15T08:58:42.658Z,11.49
2023-04-15T08:59:42.675Z,11.36
2023-04-15T09:00:43.452Z,11.28
2023-04-15T09:01:42.866Z,11.25
2023-04-15T09:02:42.899Z,11.25
2023-04-15T09:03:42.761Z,11.33
2023-04-15T09:04:43.099Z,11.24
2023-04-15T09:05:42.599Z,11.06
2023-04-15T09:06:42.574Z,11.03
2023-04-15T09:07:42.624Z,11.10
2023-04-15T09:08:42.564Z,11.18
2023-04-15T09:09:42.568Z,11.22
2023-04-15T09:10:42.529Z,11.37
2023-04-15T09:11:42.543Z,11.44
2023-04-15T09:12:42.512Z,11.43
2023-04-15T09:13:42.889Z,11.49
2023-04-15T09:14:42.502Z,11.62
2023-04-15T09:15:42.489Z,11.78
2023-04-15T09:16:42.507Z,11.90
2023-04-15T09:17:42.546Z,11.91
2023-04-15T09:18:42.457Z,11.83
2023-04-15T09:19:42.452Z,11.78
2023-04-15T09:20:42.432Z,11.98
2023-04-15T09:21:42.451Z,11.96
2023-04-15T09:22:42.524Z,11.99
2023-04-15T09:23:42.414Z,12.13
2023-04-15T09:24:42.417Z,12.10
2023-04-15T09:25:42.385Z,11.83
2023-04-15T09:26:42.376Z,11.83
2023-04-15T09:27:42.361Z,11.70
2023-04-15T09:28:42.359Z,11.70
2023-04-15T09:29:42.349Z,11.95
2023-04-15T09:30:42.353Z,11.96
2023-04-15T09:31:42.321Z,11.95
2023-04-15T09:32:42.386Z,12.14
2023-04-15T09:33:42.300Z,12.39
2023-04-15T09:34:42.286Z,12.52
2023-04-15T09:35:42.285Z,12.47
2023-04-15T09:36:42.257Z,12.49
2023-04-15T09:37:42.260Z,12.72
2023-04-15T09:38:42.233Z,12.87
2023-04-15T09:39:42.243Z,12.87
2023-04-15T09:40:42.236Z,12.59
2023-04-15T09:41:42.217Z,12.29
2023-04-15T09:42:43.016Z,12.23
2023-04-15T09:43:42.202Z,12.21
2023-04-15T09:44:42.177Z,12.32
2023-04-15T09:45:42.189Z,12.34
2023-04-15T09:46:42.169Z,12.52
2023-04-15T09:47:42.179Z,12.45
2023-04-15T09:48:42.132Z,12.41
2023-04-15T09:49:42.479Z,12.50
2023-04-15T09:50:42.111Z,12.47
2023-04-15T09:51:44.853Z,12.41
2023-04-15T09:52:43.089Z,12.45
2023-04-15T09:53:42.359Z,12.45
2023-04-15T09:54:42.193Z,12.20
2023-04-15T09:55:42.098Z,12.35
2023-04-15T09:56:42.055Z,12.52
2023-04-15T09:57:42.069Z,12.56
2023-04-15T09:58:42.085Z,12.72
2023-04-15T09:59:42.028Z,12.87
2023-04-15T10:00:42.008Z,13.03
2023-04-15T10:01:42.025Z,12.92
2023-04-15T10:02:42.079Z,13.03
2023-04-15T10:03:42.901Z,12.95
2023-04-15T10:04:41.979Z,12.65
2023-04-15T10:05:41.970Z,12.37
2023-04-15T10:06:41.948Z,11.98
2023-04-15T10:07:41.965Z,11.79
2023-04-15T10:08:41.966Z,11.46
2023-04-15T10:09:41.937Z,11.64
2023-04-15T10:10:41.900Z,11.94
2023-04-15T10:11:42.177Z,11.85
2023-04-15T10:12:41.892Z,11.91
2023-04-15T10:13:41.887Z,12.07
2023-04-15T10:14:41.871Z,11.94
2023-04-15T10:15:41.887Z,12.02
2023-04-15T10:16:41.840Z,11.88
2023-04-15T10:17:41.917Z,11.75
2023-04-15T10:18:41.846Z,11.75
2023-04-15T10:19:41.846Z,11.80
2023-04-15T10:20:42.217Z,11.78
2023-04-15T10:21:41.806Z,11.70
2023-04-15T10:22:41.792Z,11.83
2023-04-15T10:23:41.769Z,12.04
2023-04-15T10:24:41.767Z,11.95
2023-04-15T10:25:41.783Z,11.98
2023-04-15T10:26:41.738Z,12.10
2023-04-15T10:27:41.732Z,12.13
2023-04-15T10:28:41.734Z,12.20
2023-04-15T10:29:41.732Z,11.83
2023-04-15T10:30:41.695Z,11.37
2023-04-15T10:31:41.743Z,11.52
2023-04-15T10:32:41.709Z,11.75
2023-04-15T10:33:41.670Z,11.79
2023-04-15T10:34:41.656Z,11.70
2023-04-15T10:35:41.657Z,11.60
2023-04-15T10:36:41.636Z,11.47
2023-04-15T10:37:41.638Z,11.61
2023-04-15T10:38:41.606Z,11.64
2023-04-15T10:39:41.686Z,11.37
2023-04-15T10:40:41.588Z,11.25
2023-04-15T10:41:41.587Z,11.18
2023-04-15T10:42:41.567Z,11.19
2023-04-15T10:43:41.574Z,11.29
2023-04-15T10:44:42.203Z,11.10
2023-04-15T10:45:41.549Z,10.92
2023-04-15T10:46:41.610Z,11.19
2023-04-15T10:47:41.589Z,11.44
2023-04-15T10:48:41.582Z,11.78
2023-04-15T10:49:41.509Z,12.02
2023-04-15T10:50:41.480Z,12.20
2023-04-15T10:51:41.494Z,12.42
2023-04-15T10:52:41.466Z,12.39
2023-04-15T10:53:41.460Z,12.42
2023-04-15T10:54:41.442Z,12.42
2023-04-15T10:55:41.446Z,12.47
2023-04-15T10:56:41.420Z,12.16
2023-04-15T10:57:41.438Z,12.07
2023-04-15T10:58:41.414Z,12.04
2023-04-15T10:59:41.399Z,12.17
2023-04-15T11:00:41.394Z,12.37
2023-04-15T11:01:41.394Z,12.29
2023-04-15T11:02:41.871Z,12.02
2023-04-15T11:03:41.578Z,12.12
2023-04-15T11:04:43.076Z,12.17
2023-04-15T11:05:41.344Z,12.34
2023-04-15T11:06:41.324Z,12.42
2023-04-15T11:07:41.335Z,12.53
2023-04-15T11:08:41.300Z,12.68
2023-04-15T11:09:41.292Z,12.64
2023-04-15T11:10:41.280Z,12.75
2023-04-15T11:11:41.261Z,12.78
2023-04-15T11:12:41.310Z,12.74
2023-04-15T11:13:41.245Z,12.68
2023-04-15T11:14:41.234Z,12.72
2023-04-15T11:15:41.228Z,12.71
2023-04-15T11:16:41.266Z,12.75
2023-04-15T11:17:41.248Z,12.60
2023-04-15T11:18:41.190Z,12.37
2023-04-15T11:19:41.180Z,12.17
2023-04-15T11:20:41.175Z,11.95
2023-04-15T11:21:41.178Z,11.85
2023-04-15T11:22:41.150Z,11.76
2023-04-15T11:23:41.150Z,11.58
2023-04-15T11:24:41.135Z,11.51
2023-04-15T11:25:41.118Z,11.55
2023-04-15T11:26:41.107Z,11.43
2023-04-15T11:27:41.094Z,11.39
2023-04-15T11:28:41.126Z,11.46
2023-04-15T11:29:41.879Z,11.51
2023-04-15T11:30:41.076Z,11.65
2023-04-15T11:31:41.081Z,11.72
2023-04-15T11:32:41.092Z,11.82
2023-04-15T11:33:41.030Z,12.04
2023-04-15T11:34:41.028Z,12.31
2023-04-15T11:35:41.020Z,12.41
2023-04-15T11:36:41.010Z,12.24
2023-04-15T11:37:40.997Z,12.31
2023-04-15T11:38:40.991Z,12.39
2023-04-15T11:39:40.969Z,12.54
2023-04-15T11:40:40.995Z,12.82
2023-04-15T11:41:40.953Z,12.96
2023-04-15T11:42:49.437Z,12.97
2023-04-15T11:43:41.929Z,12.72
2023-04-15T11:44:40.932Z,12.70
2023-04-15T11:45:40.971Z,12.57
2023-04-15T11:46:40.915Z,12.74
2023-04-15T11:47:40.998Z,13.03
2023-04-15T11:48:40.888Z,13.26
2023-04-15T11:49:40.869Z,13.39
2023-04-15T11:50:40.913Z,13.52
2023-04-15T11:51:40.858Z,13.73
2023-04-15T11:52:41.659Z,13.89
2023-04-15T11:53:40.826Z,13.96
2023-04-15T11:54:40.838Z,14.07
2023-04-15T11:55:40.835Z,14.14
2023-04-15T11:56:40.827Z,14.17
2023-04-15T11:57:40.817Z,13.49
2023-04-15T11:58:40.835Z,13.44
2023-04-15T11:59:45.540Z,12.97
2023-04-15T12:00:41.761Z,12.93
2023-04-15T12:01:40.788Z,13.10
2023-04-15T12:02:40.884Z,13.32
2023-04-15T12:03:41.020Z,13.45
2023-04-15T12:04:40.937Z,13.32
2023-04-15T12:05:40.705Z,13.11
2023-04-15T12:06:40.698Z,12.96
2023-04-15T12:07:41.131Z,13.05
2023-04-15T12:08:40.676Z,13.05
2023-04-15T12:09:40.653Z,12.85
2023-04-15T12:10:40.675Z,12.82
2023-04-15T12:11:40.681Z,12.86
2023-04-15T12:12:40.632Z,12.75
2023-04-15T12:13:40.609Z,12.78
2023-04-15T12:14:40.644Z,12.83
2023-04-15T12:15:40.627Z,12.67
2023-04-15T12:16:48.559Z,12.57
2023-04-15T12:17:51.563Z,12.57
2023-04-15T12:18:41.575Z,12.45
2023-04-15T12:19:41.352Z,12.24
2023-04-15T12:20:40.808Z,11.96
2023-04-15T12:21:40.534Z,11.80
2023-04-15T12:22:40.536Z,11.51
2023-04-15T12:23:41.318Z,11.51
2023-04-15T12:24:40.629Z,11.61
2023-04-15T12:25:40.489Z,11.78
2023-04-15T12:26:40.484Z,11.78
2023-04-15T12:27:40.468Z,11.94
2023-04-15T12:28:40.473Z,12.09
2023-04-15T12:29:40.443Z,12.20
2023-04-15T12:30:40.436Z,12.27
2023-04-15T12:31:40.583Z,12.21
2023-04-15T12:32:42.187Z,12.07
2023-04-15T12:33:40.441Z,12.01
2023-04-15T12:34:40.507Z,11.96
2023-04-15T12:35:40.382Z,11.95
2023-04-15T12:36:40.386Z,12.01
2023-04-15T12:37:40.372Z,11.95
2023-04-15T12:38:40.368Z,11.83
2023-04-15T12:39:40.346Z,11.83
2023-04-15T12:40:40.350Z,11.91
2023-04-15T12:41:40.329Z,11.91
2023-04-15T12:42:40.317Z,11.91
2023-04-15T12:43:40.304Z,11.99
2023-04-15T12:44:40.373Z,11.82
2023-04-15T12:45:40.279Z,11.73
2023-04-15T12:46:40.352Z,11.70
2023-04-15T12:47:40.283Z,11.60
2023-04-15T12:48:40.255Z,11.64
2023-04-15T12:49:40.234Z,11.69
2023-04-15T12:50:40.235Z,11.70
2023-04-15T12:51:40.214Z,11.78
2023-04-15T12:52:40.217Z,11.85
2023-04-15T12:53:40.207Z,11.94
2023-04-15T12:54:40.198Z,11.85
2023-04-15T12:55:40.179Z,11.96
2023-04-15T12:56:40.177Z,11.88
2023-04-15T12:57:40.168Z,11.99
2023-04-15T12:58:40.157Z,11.95
2023-04-15T12:59:40.147Z,11.83
2023-04-15T13:00:40.129Z,11.73
2023-04-15T13:01:40.194Z,11.65
2023-04-15T13:02:40.297Z,11.69
2023-04-15T13:03:40.395Z,11.65
2023-04-15T13:04:40.140Z,11.72
2023-04-15T13:05:40.113Z,11.67
2023-04-15T13:06:40.062Z,11.65
2023-04-15T13:07:40.060Z,11.70